Terminal Aerodrome Forecast
Issued by NWS

Home | Current Version | Previous Version | Text Only | Print | Product List | Glossary On
Versions: 1 2 3 4 5 6 7 8 9 10 11 12 13
009
FTUS42 TJSJ 240520
TAFISX
TAF
TISX 240520Z 2406/2506 08012KT P6SM FEW035
     FM241500 11014G20KT P6SM FEW030 SCT050
     FM242300 08008KT P6SM SCT030=

USA.gov is the U.S. government's official web portal to all federal, state and local government web resources and services.